createdAt,value
2023-04-03T00:00:34.188Z,6.03
2023-04-03T00:03:00.946Z,6.10
2023-04-03T00:05:27.477Z,5.94
2023-04-03T00:07:53.846Z,6.03
2023-04-03T00:10:20.531Z,6.06
2023-04-03T00:12:47.006Z,5.86
2023-04-03T00:15:13.539Z,5.67
2023-04-03T00:17:40.405Z,5.76
2023-04-03T00:20:07.476Z,5.88
2023-04-03T00:22:33.836Z,5.92
2023-04-03T00:25:00.335Z,6.21
2023-04-03T00:27:26.951Z,5.94
2023-04-03T00:29:53.373Z,5.89
2023-04-03T00:32:19.838Z,6.17
2023-04-03T00:34:46.213Z,5.98
2023-04-03T00:37:12.770Z,6.36
2023-04-03T00:39:39.220Z,6.39
2023-04-03T00:42:05.939Z,6.40
2023-04-03T00:44:35.056Z,6.38
2023-04-03T00:47:03.458Z,6.11
2023-04-03T00:49:30.386Z,6.43
2023-04-03T00:51:58.778Z,6.27
2023-04-03T00:54:27.093Z,6.44
2023-04-03T00:56:56.488Z,6.11
2023-04-03T00:59:28.006Z,5.98
2023-04-03T01:02:00.147Z,5.86
2023-04-03T01:04:36.765Z,5.95
2023-04-03T01:07:07.162Z,5.83
2023-04-03T01:09:34.581Z,5.90
2023-04-03T01:12:24.647Z,5.95
2023-04-03T01:14:57.645Z,5.94
2023-04-03T01:17:54.413Z,6.09
2023-04-03T01:20:32.772Z,5.99
2023-04-03T01:23:24.023Z,5.99
2023-04-03T01:25:54.210Z,5.93
2023-04-03T01:28:27.306Z,5.98
2023-04-03T01:31:25.892Z,5.94
2023-04-03T01:33:53.264Z,5.92
2023-04-03T01:36:26.714Z,5.92
2023-04-03T01:38:54.422Z,5.99
2023-04-03T01:41:22.056Z,6.14
2023-04-03T01:43:49.753Z,5.97
2023-04-03T01:46:17.876Z,5.95
2023-04-03T01:48:44.575Z,5.84
2023-04-03T01:51:11.563Z,5.85
2023-04-03T01:53:37.998Z,5.88
2023-04-03T01:56:05.027Z,5.81
2023-04-03T01:58:31.758Z,5.73
2023-04-03T02:00:58.265Z,5.67
2023-04-03T02:03:24.759Z,6.03
2023-04-03T02:05:51.151Z,5.84
2023-04-03T02:08:18.943Z,5.90
2023-04-03T02:10:48.321Z,5.65
2023-04-03T02:13:14.704Z,5.67
2023-04-03T02:15:41.586Z,5.72
2023-04-03T02:18:08.677Z,5.68
2023-04-03T02:20:35.547Z,5.72
2023-04-03T02:23:02.536Z,5.51
2023-04-03T02:25:29.372Z,5.45
2023-04-03T02:27:55.708Z,5.58
2023-04-03T02:30:22.089Z,5.42
2023-04-03T02:32:48.511Z,5.50
2023-04-03T02:35:15.017Z,5.46
2023-04-03T02:37:41.616Z,5.23
2023-04-03T02:40:09.611Z,5.39
2023-04-03T02:42:36.234Z,5.59
2023-04-03T02:45:02.709Z,5.65
2023-04-03T02:47:29.151Z,5.63
2023-04-03T02:49:55.754Z,5.53
2023-04-03T02:52:22.355Z,5.40
2023-04-03T02:54:48.972Z,5.21
2023-04-03T02:57:16.078Z,5.43
2023-04-03T02:59:42.590Z,5.28
2023-04-03T03:02:09.958Z,5.35
2023-04-03T03:04:36.878Z,5.44
2023-04-03T03:07:04.114Z,5.20
2023-04-03T03:09:30.949Z,5.22
2023-04-03T03:11:57.976Z,5.23
2023-04-03T03:14:24.649Z,5.19
2023-04-03T03:16:51.103Z,5.12
2023-04-03T03:19:17.505Z,5.24
2023-04-03T03:21:43.879Z,5.22
2023-04-03T03:24:10.337Z,5.17
2023-04-03T03:26:36.756Z,5.13
2023-04-03T03:29:03.545Z,5.14
2023-04-03T03:31:30.079Z,5.19
2023-04-03T03:33:56.514Z,5.16
2023-04-03T03:36:23.069Z,5.31
2023-04-03T03:38:49.484Z,5.34
2023-04-03T03:41:15.958Z,5.48
2023-04-03T03:43:42.754Z,5.56
2023-04-03T03:46:09.198Z,5.24
2023-04-03T03:48:35.661Z,5.07
2023-04-03T03:51:02.054Z,5.10
2023-04-03T03:53:28.431Z,5.11
2023-04-03T03:55:54.800Z,5.08
2023-04-03T03:58:21.180Z,4.97
2023-04-03T04:00:47.901Z,5.20
2023-04-03T04:03:14.358Z,4.99
2023-04-03T04:05:40.815Z,4.98
2023-04-03T04:08:07.240Z,4.97
2023-04-03T04:10:34.635Z,5.00
2023-04-03T04:13:01.159Z,5.19
2023-04-03T04:15:27.963Z,5.02
2023-04-03T04:17:54.583Z,5.25
2023-04-03T04:20:21.663Z,5.03
2023-04-03T04:22:48.036Z,5.34
2023-04-03T04:25:14.551Z,5.40
2023-04-03T04:27:40.908Z,5.29
2023-04-03T04:30:07.898Z,5.12
2023-04-03T04:32:34.480Z,5.05
2023-04-03T04:35:01.361Z,4.74
2023-04-03T04:37:27.931Z,4.95
2023-04-03T04:39:54.322Z,5.03
2023-04-03T04:42:20.760Z,5.05
2023-04-03T04:44:47.109Z,4.59
2023-04-03T04:47:13.585Z,4.56
2023-04-03T04:49:39.984Z,4.67
2023-04-03T04:52:07.204Z,4.76
2023-04-03T04:54:33.781Z,4.74
2023-04-03T04:57:00.516Z,4.71
2023-04-03T04:59:26.894Z,4.81
2023-04-03T05:01:53.318Z,4.68
2023-04-03T05:04:19.780Z,4.50
2023-04-03T05:06:46.219Z,4.61
2023-04-03T05:09:13.245Z,4.55
2023-04-03T05:11:39.712Z,4.45
2023-04-03T05:14:09.127Z,4.57
2023-04-03T05:16:35.806Z,4.85
2023-04-03T05:19:02.310Z,4.76
2023-04-03T05:21:32.947Z,4.80
2023-04-03T05:24:03.629Z,4.79
2023-04-03T05:26:31.463Z,4.60
2023-04-03T05:28:58.066Z,4.69
2023-04-03T05:31:24.913Z,4.60
2023-04-03T05:33:51.449Z,4.55
2023-04-03T05:36:18.525Z,4.59
2023-04-03T05:38:45.154Z,4.34
2023-04-03T05:41:11.680Z,4.43
2023-04-03T05:43:39.893Z,4.49
2023-04-03T05:46:14.949Z,4.52
2023-04-03T05:48:41.599Z,4.56
2023-04-03T05:51:14.479Z,4.49
2023-04-03T05:53:41.671Z,4.58
2023-04-03T05:56:08.067Z,4.40
2023-04-03T05:58:34.494Z,4.60
2023-04-03T06:01:01.508Z,4.45
2023-04-03T06:03:28.092Z,4.27
2023-04-03T06:05:54.631Z,4.41
2023-04-03T06:08:21.542Z,4.44
2023-04-03T06:10:48.808Z,4.14
2023-04-03T06:13:15.257Z,3.98
2023-04-03T06:15:41.682Z,4.08
2023-04-03T06:18:08.188Z,4.05
2023-04-03T06:20:34.659Z,4.23
2023-04-03T06:23:01.192Z,4.39
2023-04-03T06:25:27.633Z,4.29
2023-04-03T06:27:56.453Z,4.28
2023-04-03T06:30:22.871Z,4.29
2023-04-03T06:32:49.438Z,4.20
2023-04-03T06:35:15.910Z,4.23
2023-04-03T06:37:42.318Z,4.40
2023-04-03T06:40:22.413Z,4.57
2023-04-03T06:42:48.827Z,4.59
2023-04-03T06:45:15.630Z,4.78
2023-04-03T06:47:42.206Z,4.79
2023-04-03T06:50:12.286Z,4.93
2023-04-03T06:52:40.728Z,4.83
2023-04-03T06:55:08.289Z,4.87
2023-04-03T06:57:34.839Z,5.10
2023-04-03T07:00:01.436Z,4.95
2023-04-03T07:04:54.494Z,4.80
2023-04-03T07:07:21.061Z,4.62
2023-04-03T07:09:48.928Z,4.82
2023-04-03T07:12:16.014Z,4.93
2023-04-03T07:14:42.468Z,4.91
2023-04-03T07:17:08.958Z,5.02
2023-04-03T07:19:35.546Z,5.01
2023-04-03T07:22:01.972Z,5.24
2023-04-03T07:24:28.540Z,5.37
2023-04-03T07:26:55.115Z,5.10
2023-04-03T07:29:22.445Z,5.26
2023-04-03T07:31:48.971Z,5.27
2023-04-03T07:34:15.796Z,5.48
2023-04-03T07:36:42.289Z,5.61
2023-04-03T07:39:09.136Z,5.83
2023-04-03T07:41:35.702Z,5.88
2023-04-03T07:44:02.146Z,5.78
2023-04-03T07:46:28.772Z,5.95
2023-04-03T07:48:56.713Z,5.78
2023-04-03T07:51:25.597Z,5.67
2023-04-03T07:53:51.986Z,5.95
2023-04-03T07:56:18.381Z,6.08
2023-04-03T07:58:44.775Z,5.90
2023-04-03T08:01:11.186Z,6.01
2023-04-03T08:03:38.642Z,6.29
2023-04-03T08:06:11.758Z,6.27
2023-04-03T08:08:42.314Z,6.21
2023-04-03T08:11:09.356Z,6.17
2023-04-03T08:13:36.639Z,6.09
2023-04-03T08:16:10.481Z,6.24
2023-04-03T08:18:36.932Z,6.20
2023-04-03T08:21:06.858Z,6.20
2023-04-03T08:23:33.280Z,6.19
2023-04-03T08:25:59.671Z,6.44
2023-04-03T08:28:26.202Z,6.42
2023-04-03T08:30:52.642Z,6.46
2023-04-03T08:33:19.051Z,6.56
2023-04-03T08:35:45.557Z,6.58
2023-04-03T08:38:11.984Z,6.36
2023-04-03T08:40:39.239Z,6.33
2023-04-03T08:43:30.501Z,6.18
2023-04-03T08:46:02.075Z,6.74
2023-04-03T08:48:42.386Z,6.71
2023-04-03T08:51:16.397Z,6.74
2023-04-03T08:54:05.332Z,6.49
2023-04-03T08:56:34.430Z,6.63
2023-04-03T08:59:06.365Z,6.69
2023-04-03T09:01:40.458Z,6.50
2023-04-03T09:04:14.012Z,6.41
2023-04-03T09:06:43.631Z,6.66
2023-04-03T09:09:19.218Z,6.69
2023-04-03T09:12:10.282Z,6.86
2023-04-03T09:14:40.153Z,6.56
2023-04-03T09:17:36.884Z,6.97
2023-04-03T09:20:20.353Z,6.86
2023-04-03T09:22:52.176Z,7.01
2023-04-03T09:25:32.185Z,6.96
2023-04-03T09:28:00.013Z,6.93
2023-04-03T09:30:27.228Z,7.19
2023-04-03T09:32:57.286Z,7.30
2023-04-03T09:35:44.979Z,7.43
2023-04-03T09:38:14.824Z,7.44
2023-04-03T09:40:43.646Z,7.68
2023-04-03T09:43:39.985Z,7.54
2023-04-03T09:46:26.392Z,7.47
2023-04-03T09:49:08.174Z,7.52
2023-04-03T09:51:35.298Z,7.51
2023-04-03T09:54:27.082Z,7.37
2023-04-03T09:56:56.598Z,7.87
2023-04-03T09:59:23.463Z,7.48
2023-04-03T10:02:02.962Z,7.49
2023-04-03T10:04:40.434Z,7.86
2023-04-03T10:07:37.641Z,7.73
2023-04-03T10:10:16.219Z,7.20
2023-04-03T10:12:42.655Z,6.78
2023-04-03T10:15:14.745Z,6.98
2023-04-03T10:17:47.338Z,7.63
2023-04-03T10:20:21.690Z,7.42
2023-04-03T10:23:05.303Z,7.79
2023-04-03T10:25:55.950Z,8.09
2023-04-03T10:28:33.662Z,7.78
2023-04-03T10:31:02.993Z,7.41
2023-04-03T10:33:35.364Z,7.30
2023-04-03T10:36:13.327Z,7.55
2023-04-03T10:39:01.412Z,7.56
2023-04-03T10:42:16.770Z,7.60
2023-04-03T10:45:19.972Z,7.37
2023-04-03T10:47:55.852Z,7.28
2023-04-03T10:50:53.172Z,7.44
2023-04-03T10:53:37.260Z,7.24
2023-04-03T10:56:26.219Z,7.60
2023-04-03T10:59:02.172Z,7.55
2023-04-03T11:01:36.284Z,7.93
2023-04-03T11:04:07.045Z,7.95
2023-04-03T11:06:50.426Z,8.07
2023-04-03T11:09:20.693Z,7.85
2023-04-03T11:11:50.135Z,7.66
2023-04-03T11:14:29.115Z,7.49
2023-04-03T11:17:06.370Z,7.60
2023-04-03T11:20:01.520Z,7.84
2023-04-03T11:22:38.583Z,7.88
2023-04-03T11:25:20.953Z,8.43
2023-04-03T11:28:06.326Z,7.95
2023-04-03T11:31:10.505Z,8.08
2023-04-03T11:34:07.574Z,8.16
2023-04-03T11:36:42.184Z,8.20
2023-04-03T11:39:22.533Z,8.01
2023-04-03T11:41:49.144Z,7.78
2023-04-03T11:44:38.657Z,8.08
2023-04-03T11:47:11.286Z,7.83
2023-04-03T11:50:02.091Z,8.11
2023-04-03T11:52:43.723Z,8.13
2023-04-03T11:55:22.778Z,7.83
2023-04-03T11:57:58.305Z,8.07
2023-04-03T12:00:53.042Z,7.96
2023-04-03T12:03:28.766Z,8.06
2023-04-03T12:06:07.156Z,8.49
2023-04-03T12:08:33.488Z,8.73
2023-04-03T12:11:15.489Z,8.44
2023-04-03T12:13:53.738Z,8.90
2023-04-03T12:16:31.300Z,8.73
2023-04-03T12:19:04.400Z,8.71
2023-04-03T12:21:30.767Z,8.26
2023-04-03T12:24:11.654Z,8.37
2023-04-03T12:27:05.831Z,8.46
2023-04-03T12:29:33.095Z,8.67
2023-04-03T12:32:18.141Z,8.65
2023-04-03T12:34:50.323Z,8.76
2023-04-03T12:37:54.478Z,8.71
2023-04-03T12:40:42.685Z,8.46
2023-04-03T12:43:23.886Z,8.41
2023-04-03T12:46:03.126Z,8.70
2023-04-03T12:48:34.577Z,8.84
2023-04-03T12:51:01.731Z,8.94
2023-04-03T12:53:37.418Z,8.67
2023-04-03T12:56:24.319Z,8.84
2023-04-03T12:58:52.137Z,8.70
2023-04-03T13:01:22.797Z,8.73
2023-04-03T13:03:53.475Z,8.32
2023-04-03T13:06:25.010Z,8.84
2023-04-03T13:08:58.039Z,8.91
2023-04-03T13:11:31.556Z,8.92
2023-04-03T13:14:04.465Z,8.96
2023-04-03T13:16:30.875Z,9.20
2023-04-03T13:18:57.287Z,8.70
2023-04-03T13:21:27.553Z,8.26
2023-04-03T13:24:11.523Z,8.56
2023-04-03T13:26:43.150Z,8.47
2023-04-03T13:29:29.934Z,8.81
2023-04-03T13:31:58.927Z,8.63
2023-04-03T13:34:28.811Z,9.03
2023-04-03T13:36:55.331Z,9.18
2023-04-03T13:39:31.218Z,8.52
2023-04-03T13:42:02.323Z,8.78
2023-04-03T13:44:31.440Z,9.23
2023-04-03T13:47:23.072Z,8.87
2023-04-03T13:50:14.845Z,8.80
2023-04-03T13:52:49.466Z,9.29
2023-04-03T13:55:27.391Z,9.04
2023-04-03T13:58:03.348Z,9.24
2023-04-03T14:00:35.579Z,9.05
2023-04-03T14:03:02.107Z,9.19
2023-04-03T14:05:28.820Z,9.15
2023-04-03T14:07:56.317Z,9.10
2023-04-03T14:10:22.903Z,9.25
2023-04-03T14:12:51.587Z,9.03
2023-04-03T14:15:20.667Z,9.01
2023-04-03T14:17:47.122Z,9.19
2023-04-03T14:20:19.490Z,9.47
2023-04-03T14:22:46.100Z,8.96
2023-04-03T14:25:12.699Z,8.83
2023-04-03T14:27:44.666Z,8.95
2023-04-03T14:30:20.273Z,8.80
2023-04-03T14:32:47.933Z,9.16
2023-04-03T14:35:15.713Z,9.28
2023-04-03T14:37:42.852Z,9.14
2023-04-03T14:40:12.917Z,9.12
2023-04-03T14:42:39.395Z,9.26
2023-04-03T14:45:09.446Z,9.35
2023-04-03T14:47:41.893Z,8.97
2023-04-03T14:50:09.045Z,8.97
2023-04-03T14:52:36.926Z,8.88
2023-04-03T14:55:06.724Z,9.00
2023-04-03T14:57:34.187Z,9.17
2023-04-03T15:00:02.091Z,9.09
2023-04-03T15:02:37.459Z,9.10
2023-04-03T15:05:07.476Z,8.91
2023-04-03T15:07:37.263Z,9.02
2023-04-03T15:10:21.910Z,9.18
2023-04-03T15:12:49.330Z,9.13
2023-04-03T15:15:18.113Z,9.25
2023-04-03T15:17:46.046Z,9.05
2023-04-03T15:20:18.255Z,8.70
2023-04-03T15:22:44.780Z,8.89
2023-04-03T15:25:11.219Z,8.83
2023-04-03T15:27:38.664Z,8.90
2023-04-03T15:30:08.907Z,9.00
2023-04-03T15:32:36.157Z,9.01
2023-04-03T15:35:03.050Z,8.60
2023-04-03T15:37:29.505Z,8.90
2023-04-03T15:39:56.171Z,9.03
2023-04-03T15:42:22.591Z,8.72
2023-04-03T15:44:48.981Z,8.83
2023-04-03T15:47:15.721Z,8.85
2023-04-03T15:49:42.253Z,8.84
2023-04-03T15:52:08.734Z,8.76
2023-04-03T15:54:35.358Z,8.70
2023-04-03T15:57:02.033Z,8.60
2023-04-03T15:59:30.673Z,8.58
2023-04-03T16:01:58.009Z,8.74
2023-04-03T16:04:24.484Z,8.69
2023-04-03T16:06:51.244Z,8.84
2023-04-03T16:09:17.934Z,8.69
2023-04-03T16:11:44.448Z,8.71
2023-04-03T16:14:10.967Z,8.63
2023-04-03T16:16:38.105Z,8.48
2023-04-03T16:19:05.947Z,8.54
2023-04-03T16:21:34.078Z,8.54
2023-04-03T16:24:01.452Z,8.64
2023-04-03T16:26:27.925Z,8.60
2023-04-03T16:28:54.617Z,8.46
2023-04-03T16:31:22.597Z,8.56
2023-04-03T16:33:49.234Z,8.43
2023-04-03T16:36:15.637Z,8.40
2023-04-03T16:38:42.102Z,8.50
2023-04-03T16:41:08.512Z,8.58
2023-04-03T16:43:36.494Z,8.31
2023-04-03T16:46:03.465Z,8.38
2023-04-03T16:48:30.958Z,8.37
2023-04-03T16:50:57.363Z,8.26
2023-04-03T16:53:25.663Z,8.11
2023-04-03T16:55:52.352Z,8.16
2023-04-03T16:58:19.850Z,8.24
2023-04-03T17:00:48.282Z,8.11
2023-04-03T17:03:14.849Z,8.01
2023-04-03T17:05:41.576Z,8.13
2023-04-03T17:08:08.207Z,7.91
2023-04-03T17:10:36.266Z,8.08
2023-04-03T17:13:02.880Z,8.01
2023-04-03T17:15:29.283Z,7.97
2023-04-03T17:17:55.802Z,7.71
2023-04-03T17:20:22.441Z,7.74
2023-04-03T17:22:48.905Z,7.65
2023-04-03T17:25:15.706Z,7.61
2023-04-03T17:27:42.277Z,7.42
2023-04-03T17:30:09.232Z,7.40
2023-04-03T17:32:35.753Z,7.43
2023-04-03T17:35:02.203Z,7.41
2023-04-03T17:37:28.650Z,7.21
2023-04-03T17:39:55.069Z,7.29
2023-04-03T17:42:21.509Z,7.18
2023-04-03T17:44:47.995Z,7.18
2023-04-03T17:47:14.518Z,7.09
2023-04-03T17:49:40.925Z,7.03
2023-04-03T17:52:07.378Z,6.98
2023-04-03T17:54:33.723Z,6.90
2023-04-03T17:57:00.244Z,6.91
2023-04-03T17:59:26.763Z,6.85
2023-04-03T18:01:53.397Z,6.81
2023-04-03T18:04:19.919Z,6.66
2023-04-03T18:06:49.893Z,6.68
2023-04-03T18:09:27.065Z,6.60
2023-04-03T18:11:53.965Z,6.44
2023-04-03T18:14:23.725Z,6.47
2023-04-03T18:16:50.265Z,6.34
2023-04-03T18:21:47.665Z,6.15
2023-04-03T18:24:17.316Z,6.20
2023-04-03T18:26:50.896Z,6.08
2023-04-03T18:29:17.551Z,6.07
2023-04-03T18:31:48.267Z,6.13
2023-04-03T18:34:14.731Z,6.07
2023-04-03T18:36:41.733Z,6.12
2023-04-03T18:39:08.297Z,5.96
2023-04-03T18:41:36.544Z,5.96
2023-04-03T18:44:06.824Z,5.81
2023-04-03T18:46:34.064Z,5.66
2023-04-03T18:49:00.722Z,5.79
2023-04-03T18:51:27.523Z,5.74
2023-04-03T18:53:54.003Z,5.93
2023-04-03T18:56:20.423Z,5.70
2023-04-03T18:58:47.184Z,5.73
2023-04-03T19:01:14.776Z,5.61
2023-04-03T19:03:41.700Z,5.63
2023-04-03T19:06:08.511Z,5.66
2023-04-03T19:08:35.337Z,5.58
2023-04-03T19:11:01.847Z,5.53
2023-04-03T19:13:28.299Z,5.33
2023-04-03T19:15:58.657Z,5.37
2023-04-03T19:18:26.664Z,5.38
2023-04-03T19:20:56.150Z,5.46
2023-04-03T19:23:23.557Z,5.30
2023-04-03T19:26:01.753Z,5.22
2023-04-03T19:28:28.719Z,5.13
2023-04-03T19:30:56.235Z,5.32
2023-04-03T19:33:22.687Z,5.28
2023-04-03T19:35:49.090Z,5.18
2023-04-03T19:38:15.705Z,5.17
2023-04-03T19:40:43.851Z,5.05
2023-04-03T19:43:14.369Z,5.06
2023-04-03T19:45:41.614Z,5.01
2023-04-03T19:48:08.494Z,5.07
2023-04-03T19:50:35.745Z,4.97
2023-04-03T19:53:02.544Z,4.97
2023-04-03T19:55:31.729Z,4.90
2023-04-03T19:58:02.361Z,4.78
2023-04-03T20:00:30.374Z,4.83
2023-04-03T20:02:57.401Z,4.77
2023-04-03T20:05:24.588Z,4.87
2023-04-03T20:07:51.020Z,4.85
2023-04-03T20:10:17.679Z,4.70
2023-04-03T20:12:44.730Z,4.62
2023-04-03T20:15:11.603Z,4.60
2023-04-03T20:17:38.171Z,4.50
2023-04-03T20:20:05.830Z,4.47
2023-04-03T20:22:33.023Z,4.45
2023-04-03T20:25:05.940Z,4.43
2023-04-03T20:27:33.738Z,4.54
2023-04-03T20:30:03.036Z,4.52
2023-04-03T20:32:30.336Z,4.44
2023-04-03T20:35:03.002Z,4.21
2023-04-03T20:37:30.855Z,4.38
2023-04-03T20:39:57.255Z,4.17
2023-04-03T20:42:23.622Z,4.13
2023-04-03T20:44:49.988Z,3.81
2023-04-03T20:47:16.471Z,4.04
2023-04-03T20:49:46.183Z,4.08
2023-04-03T20:52:12.615Z,3.94
2023-04-03T20:54:40.025Z,4.08
2023-04-03T20:57:06.552Z,4.18
2023-04-03T20:59:34.143Z,3.87
2023-04-03T21:02:00.663Z,3.97
2023-04-03T21:04:41.401Z,4.02
2023-04-03T21:07:46.277Z,4.02
2023-04-03T21:10:49.871Z,3.70
2023-04-03T21:13:54.671Z,3.76
2023-04-03T21:16:21.537Z,3.82
2023-04-03T21:19:01.878Z,3.76
2023-04-03T21:21:28.578Z,3.69
2023-04-03T21:23:55.960Z,3.77
2023-04-03T21:26:25.327Z,3.68
2023-04-03T21:28:52.395Z,3.64
2023-04-03T21:31:21.196Z,3.70
2023-04-03T21:33:47.746Z,3.65
2023-04-03T21:36:15.190Z,3.71
2023-04-03T21:38:42.084Z,3.60
2023-04-03T21:41:08.476Z,3.49
2023-04-03T21:43:34.918Z,3.39
2023-04-03T21:46:01.877Z,3.10
2023-04-03T21:48:30.453Z,3.02
2023-04-03T21:51:06.672Z,2.83
2023-04-03T21:53:33.871Z,2.71
2023-04-03T21:56:02.149Z,2.78
2023-04-03T21:58:32.549Z,2.61
2023-04-03T22:01:09.899Z,2.85
2023-04-03T22:03:36.897Z,2.84
2023-04-03T22:06:03.801Z,2.85
2023-04-03T22:08:30.339Z,2.71
2023-04-03T22:11:04.617Z,2.71
2023-04-03T22:13:31.349Z,2.84
2023-04-03T22:15:59.345Z,2.92
2023-04-03T22:18:26.295Z,2.75
2023-04-03T22:20:52.702Z,2.83
2023-04-03T22:23:19.334Z,2.91
2023-04-03T22:26:02.715Z,2.82
2023-04-03T22:28:30.980Z,2.67
2023-04-03T22:31:00.336Z,2.61
2023-04-03T22:33:27.138Z,2.58
2023-04-03T22:35:53.554Z,2.57
2023-04-03T22:38:19.930Z,2.56
2023-04-03T22:40:46.346Z,2.37
2023-04-03T22:43:13.290Z,2.33
2023-04-03T22:45:50.236Z,2.48
2023-04-03T22:48:17.523Z,2.57
2023-04-03T22:50:44.275Z,2.30
2023-04-03T22:53:11.084Z,2.26
2023-04-03T22:55:38.182Z,2.45
2023-04-03T22:58:05.670Z,2.35
2023-04-03T23:00:32.825Z,2.26
2023-04-03T23:02:59.758Z,2.34
2023-04-03T23:05:26.478Z,2.21
2023-04-03T23:07:52.895Z,2.23
2023-04-03T23:10:19.526Z,2.20
2023-04-03T23:12:45.865Z,2.05
2023-04-03T23:15:14.494Z,2.03
2023-04-03T23:17:40.959Z,2.04
2023-04-03T23:20:07.779Z,2.08
2023-04-03T23:22:34.211Z,2.13
2023-04-03T23:25:00.614Z,1.95
2023-04-03T23:27:26.954Z,2.11
2023-04-03T23:29:53.617Z,1.91
2023-04-03T23:32:20.194Z,1.89
2023-04-03T23:34:46.815Z,1.72
2023-04-03T23:37:13.233Z,1.86
2023-04-03T23:39:39.655Z,1.91
2023-04-03T23:42:09.094Z,1.72
2023-04-03T23:44:35.697Z,1.74
2023-04-03T23:47:02.196Z,1.58
2023-04-03T23:49:28.840Z,1.53
2023-04-03T23:51:56.869Z,1.40
2023-04-03T23:54:23.439Z,1.62
2023-04-03T23:56:49.802Z,1.52
2023-04-03T23:59:16.369Z,1.47
